createdAt,value
2018-05-07T00:03:41.493Z,12.30
2018-05-07T00:08:15.434Z,12.20
2018-05-07T00:12:48.581Z,12.20
2018-05-07T00:17:21.733Z,12.10
2018-05-07T00:21:55.633Z,12.00
2018-05-07T00:26:28.807Z,11.90
2018-05-07T00:31:01.998Z,11.90
2018-05-07T00:35:35.156Z,11.70
2018-05-07T00:40:08.327Z,11.60
2018-05-07T00:44:41.497Z,11.60
2018-05-07T00:49:14.641Z,11.50
2018-05-07T00:53:47.796Z,11.50
2018-05-07T00:58:21.720Z,11.40
2018-05-07T01:02:55.645Z,11.40
2018-05-07T01:07:29.570Z,11.20
2018-05-07T01:12:03.469Z,11.20
2018-05-07T01:16:36.633Z,11.10
2018-05-07T01:21:09.805Z,11.10
2018-05-07T01:25:43.701Z,11.00
2018-05-07T01:30:16.864Z,10.90
2018-05-07T01:34:50.002Z,11.00
2018-05-07T01:39:23.152Z,10.90
2018-05-07T01:43:56.332Z,10.70
2018-05-07T01:48:29.496Z,10.60
2018-05-07T01:53:02.650Z,10.50
2018-05-07T01:57:36.592Z,10.40
2018-05-07T02:02:09.728Z,10.40
2018-05-07T02:06:42.878Z,10.30
2018-05-07T02:11:16.309Z,10.30
2018-05-07T02:15:50.229Z,10.20
2018-05-07T02:20:24.152Z,10.10
2018-05-07T02:24:58.081Z,10.10
2018-05-07T02:29:31.250Z,10.00
2018-05-07T02:34:04.438Z,10.00
2018-05-07T02:38:37.633Z,9.80
2018-05-07T02:43:10.816Z,9.80
2018-05-07T02:47:44.006Z,9.80
2018-05-07T02:52:17.959Z,9.80
2018-05-07T02:56:51.146Z,9.70
2018-05-07T03:01:25.103Z,9.70
2018-05-07T03:05:58.301Z,9.70
2018-05-07T03:10:31.486Z,9.70
2018-05-07T03:15:05.438Z,9.60
2018-05-07T03:19:38.664Z,9.60
2018-05-07T03:24:11.861Z,9.60
2018-05-07T03:28:45.013Z,9.60
2018-05-07T03:33:18.955Z,9.40
2018-05-07T03:37:52.155Z,9.40
2018-05-07T03:42:26.125Z,9.30
2018-05-07T03:46:59.339Z,9.30
2018-05-07T03:51:32.546Z,9.30
2018-05-07T03:56:05.719Z,9.30
2018-05-07T04:00:38.903Z,9.20
2018-05-07T04:05:12.822Z,9.10
2018-05-07T04:09:46.883Z,9.00
2018-05-07T04:14:20.050Z,9.00
2018-05-07T04:24:04.438Z,9.10
2018-05-07T04:28:38.366Z,9.10
2018-05-07T04:33:11.553Z,9.00
2018-05-07T04:37:44.710Z,9.00
2018-05-07T04:42:17.889Z,9.10
2018-05-07T04:46:51.071Z,9.10
2018-05-07T04:51:24.267Z,9.20
2018-05-07T04:55:57.438Z,9.40
2018-05-07T05:00:30.618Z,9.50
2018-05-07T05:05:04.597Z,9.90
2018-05-07T05:09:38.611Z,10.00
2018-05-07T05:14:11.837Z,10.00
2018-05-07T05:18:45.003Z,10.20
2018-05-07T05:23:18.214Z,10.50
2018-05-07T05:27:51.398Z,10.70
2018-05-07T05:32:25.318Z,11.10
2018-05-07T05:36:59.286Z,11.40
2018-05-07T05:41:32.487Z,11.40
2018-05-07T05:46:05.755Z,11.70
2018-05-07T05:50:39.738Z,12.20
2018-05-07T05:55:12.927Z,12.10
2018-05-07T05:59:46.261Z,12.40
2018-05-07T06:04:19.443Z,12.70
2018-05-07T06:08:52.725Z,13.00
2018-05-07T06:13:26.665Z,13.50
2018-05-07T06:17:59.853Z,13.50
2018-05-07T06:22:33.806Z,14.50
2018-05-07T06:27:06.999Z,14.50
2018-05-07T06:31:40.199Z,15.00
2018-05-07T06:36:13.413Z,15.60
2018-05-07T06:40:46.614Z,16.20
2018-05-07T06:45:19.820Z,16.70
2018-05-07T06:49:53.036Z,17.00
2018-05-07T06:54:26.247Z,17.30
2018-05-07T06:58:59.443Z,17.70
2018-05-07T07:03:32.635Z,17.90
2018-05-07T07:08:06.643Z,18.20
2018-05-07T07:12:39.827Z,18.10
2018-05-07T07:17:13.027Z,18.60
2018-05-07T07:21:47.672Z,19.00
2018-05-07T07:26:22.391Z,19.10
2018-05-07T07:30:55.968Z,19.20
2018-05-07T07:35:29.927Z,19.60
2018-05-07T07:40:03.107Z,19.60
2018-05-07T07:44:36.414Z,20.20
2018-05-07T07:49:11.913Z,21.40
2018-05-07T07:53:46.088Z,21.80
2018-05-07T07:58:20.439Z,22.20
2018-05-07T08:02:53.651Z,22.10
2018-05-07T08:07:26.813Z,22.00
2018-05-07T08:12:00.842Z,24.40
2018-05-07T08:16:33.990Z,24.30
2018-05-07T08:21:07.214Z,25.90
2018-05-07T08:25:40.370Z,26.30
2018-05-07T08:30:13.590Z,26.80
2018-05-07T08:34:47.558Z,27.00
2018-05-07T08:39:20.818Z,27.00
2018-05-07T08:43:54.805Z,28.00
2018-05-07T08:48:27.966Z,27.90
2018-05-07T08:53:01.223Z,28.90
2018-05-07T08:57:34.411Z,29.80
2018-05-07T09:02:07.688Z,30.60
2018-05-07T09:06:40.810Z,30.80
2018-05-07T09:11:14.382Z,30.80
2018-05-07T09:15:48.315Z,31.20
2018-05-07T09:20:22.269Z,31.50
2018-05-07T09:24:55.488Z,31.50
2018-05-07T09:29:28.652Z,31.70
2018-05-07T09:34:02.597Z,32.00
2018-05-07T09:38:35.782Z,31.90
2018-05-07T09:43:09.779Z,32.30
2018-05-07T09:47:42.941Z,32.30
2018-05-07T09:52:16.130Z,32.20
2018-05-07T09:56:56.105Z,32.00
2018-05-07T10:01:29.239Z,31.90
2018-05-07T10:06:02.431Z,32.70
2018-05-07T10:10:35.617Z,32.40
2018-05-07T10:15:09.583Z,31.50
2018-05-07T10:19:42.783Z,31.40
2018-05-07T10:24:15.991Z,31.20
2018-05-07T10:28:49.156Z,31.50
2018-05-07T10:33:23.117Z,31.70
2018-05-07T10:37:56.298Z,31.70
2018-05-07T10:42:29.485Z,31.70
2018-05-07T10:47:03.433Z,31.10
2018-05-07T10:51:36.714Z,31.10
2018-05-07T10:56:10.838Z,32.40
2018-05-07T11:00:44.497Z,32.40
2018-05-07T11:05:18.534Z,32.40
2018-05-07T11:09:51.723Z,32.40
2018-05-07T11:14:24.923Z,32.00
2018-05-07T11:18:58.078Z,32.30
2018-05-07T11:23:31.270Z,32.10
2018-05-07T11:28:04.458Z,32.20
2018-05-07T11:32:37.701Z,32.20
2018-05-07T11:37:10.891Z,32.40
2018-05-07T11:41:44.101Z,32.40
2018-05-07T11:46:17.286Z,32.60
2018-05-07T11:50:50.473Z,33.10
2018-05-07T11:55:23.658Z,31.40
2018-05-07T11:59:57.610Z,31.90
2018-05-07T12:04:30.945Z,31.90
2018-05-07T12:09:04.148Z,32.40
2018-05-07T12:13:37.326Z,32.50
2018-05-07T12:18:10.519Z,33.10
2018-05-07T12:22:44.471Z,33.90
2018-05-07T12:27:17.664Z,33.80
2018-05-07T12:31:50.915Z,33.60
2018-05-07T12:36:24.549Z,33.90
2018-05-07T12:40:58.515Z,33.50
2018-05-07T12:45:31.700Z,33.50
2018-05-07T12:50:05.658Z,34.40
2018-05-07T12:54:38.842Z,34.30
2018-05-07T12:59:12.119Z,35.20
2018-05-07T13:03:45.242Z,34.40
2018-05-07T13:08:19.202Z,33.30
2018-05-07T13:12:52.402Z,33.20
2018-05-07T13:17:25.602Z,33.20
2018-05-07T13:21:58.786Z,33.30
2018-05-07T13:26:32.808Z,32.10
2018-05-07T13:31:06.780Z,31.50
2018-05-07T13:35:41.196Z,31.10
2018-05-07T13:40:14.422Z,31.10
2018-05-07T13:44:47.613Z,30.60
2018-05-07T13:49:23.541Z,30.30
2018-05-07T13:53:56.934Z,30.00
2018-05-07T13:58:30.137Z,29.50
2018-05-07T14:03:07.706Z,29.10
2018-05-07T14:07:41.775Z,28.80
2018-05-07T14:12:15.013Z,28.80
2018-05-07T14:16:48.963Z,28.40
2018-05-07T14:21:22.163Z,28.30
2018-05-07T14:25:55.380Z,28.40
2018-05-07T14:30:28.585Z,28.30
2018-05-07T14:35:03.023Z,28.20
2018-05-07T14:39:36.353Z,28.20
2018-05-07T14:44:09.518Z,28.10
2018-05-07T14:48:43.480Z,27.80
2018-05-07T14:53:16.873Z,27.70
2018-05-07T14:57:50.202Z,27.70
2018-05-07T15:02:23.393Z,27.70
2018-05-07T15:06:56.593Z,27.40
2018-05-07T15:11:29.904Z,27.20
2018-05-07T15:16:03.109Z,27.20
2018-05-07T15:20:36.309Z,27.10
2018-05-07T15:25:09.570Z,27.00
2018-05-07T15:29:43.023Z,26.80
2018-05-07T15:34:17.014Z,26.60
2018-05-07T15:38:50.205Z,26.60
2018-05-07T15:43:23.447Z,26.60
2018-05-07T15:47:57.510Z,26.50
2018-05-07T15:52:30.734Z,26.40
2018-05-07T15:57:03.910Z,26.40
2018-05-07T16:01:37.102Z,26.40
2018-05-07T16:06:11.115Z,26.40
2018-05-07T16:10:44.262Z,26.40
2018-05-07T16:15:17.527Z,26.40
2018-05-07T16:19:50.698Z,26.40
2018-05-07T16:24:23.894Z,26.40
2018-05-07T16:28:57.062Z,26.30
2018-05-07T16:33:30.286Z,26.20
2018-05-07T16:38:04.963Z,26.10
2018-05-07T16:42:38.243Z,26.00
2018-05-07T16:47:11.360Z,26.00
2018-05-07T16:51:44.569Z,25.90
2018-05-07T16:56:17.874Z,25.70
2018-05-07T17:00:51.073Z,25.60
2018-05-07T17:05:24.279Z,25.40
2018-05-07T17:09:57.650Z,25.40
2018-05-07T17:14:31.646Z,25.20
2018-05-07T17:19:04.842Z,25.20
2018-05-07T17:23:38.070Z,25.10
2018-05-07T17:28:11.278Z,25.00
2018-05-07T17:32:44.470Z,24.90
2018-05-07T17:37:17.661Z,24.80
2018-05-07T17:41:50.898Z,24.70
2018-05-07T17:46:35.899Z,24.50
2018-05-07T17:51:09.861Z,24.40
2018-05-07T17:55:43.055Z,24.30
2018-05-07T18:00:16.247Z,24.30
2018-05-07T18:04:50.209Z,24.00
2018-05-07T18:09:23.402Z,24.00
2018-05-07T18:13:56.601Z,23.90
2018-05-07T18:18:29.799Z,23.80
2018-05-07T18:23:02.992Z,23.60
2018-05-07T18:27:36.956Z,23.30
2018-05-07T18:32:10.127Z,23.30
2018-05-07T18:36:44.083Z,23.10
2018-05-07T18:41:17.319Z,23.00
2018-05-07T18:45:50.505Z,22.90
2018-05-07T18:50:23.691Z,22.80
2018-05-07T18:54:56.885Z,22.70
2018-05-07T18:59:30.101Z,22.50
2018-05-07T19:04:03.510Z,22.30
2018-05-07T19:08:36.897Z,22.10
2018-05-07T19:13:11.126Z,21.50
2018-05-07T19:17:45.081Z,21.20
2018-05-07T19:22:18.366Z,21.10
2018-05-07T19:26:51.832Z,20.90
2018-05-07T19:31:25.217Z,20.60
2018-05-07T19:35:59.321Z,20.30
2018-05-07T19:40:33.490Z,20.00
2018-05-07T19:45:06.722Z,19.80
2018-05-07T19:49:40.786Z,19.20
2018-05-07T19:54:14.759Z,18.90
2018-05-07T19:58:48.405Z,18.80
2018-05-07T20:03:22.357Z,18.40
2018-05-07T20:07:57.657Z,18.30
2018-05-07T20:12:31.435Z,18.20
2018-05-07T20:17:06.572Z,18.10
2018-05-07T20:21:41.379Z,17.90
2018-05-07T20:26:15.917Z,17.70
2018-05-07T20:30:50.097Z,17.50
2018-05-07T20:35:24.894Z,17.10
2018-05-07T20:39:58.261Z,17.00
2018-05-07T20:44:32.205Z,16.90
2018-05-07T20:53:32.321Z,16.50
2018-05-07T20:58:06.615Z,16.30
2018-05-07T21:02:39.818Z,16.20
2018-05-07T21:07:12.978Z,16.10
2018-05-07T21:11:46.933Z,15.80
2018-05-07T21:16:20.402Z,15.80
2018-05-07T21:20:54.630Z,15.40
2018-05-07T21:25:27.810Z,15.40
2018-05-07T21:30:01.044Z,15.30
2018-05-07T21:34:34.198Z,15.20
2018-05-07T21:39:07.399Z,15.20
2018-05-07T21:43:40.565Z,15.10
2018-05-07T21:48:13.797Z,15.00
2018-05-07T21:52:47.001Z,15.00
2018-05-07T21:57:20.171Z,14.90
2018-05-07T22:01:53.374Z,14.80
2018-05-07T22:06:27.315Z,14.50
2018-05-07T22:11:01.271Z,14.50
2018-05-07T22:15:34.456Z,14.40
2018-05-07T22:20:07.660Z,14.40
2018-05-07T22:24:41.642Z,14.00
2018-05-07T22:29:14.804Z,14.00
2018-05-07T22:33:47.986Z,13.90
2018-05-07T22:38:21.175Z,13.90
2018-05-07T22:42:54.599Z,13.80
2018-05-07T22:47:27.786Z,13.70
2018-05-07T22:52:01.061Z,13.60
2018-05-07T22:56:34.182Z,13.50
2018-05-07T23:01:07.366Z,13.50
2018-05-07T23:05:40.561Z,13.40
2018-05-07T23:10:13.771Z,13.30
2018-05-07T23:14:46.970Z,13.20
2018-05-07T23:19:20.153Z,13.20
2018-05-07T23:23:53.342Z,13.10
2018-05-07T23:28:26.560Z,13.00
2018-05-07T23:32:59.745Z,12.90
2018-05-07T23:37:32.946Z,12.70
2018-05-07T23:42:06.110Z,12.60
2018-05-07T23:46:39.293Z,12.60
2018-05-07T23:51:13.264Z,12.50
2018-05-07T23:55:46.451Z,12.40
